Time;durP1;ratioP1;P1;durP2;ratioP2;P2;SDS_P1;SDS_P2;PMS_P1;PMS_P2;Temp;Humidity;BMP_temperature;BMP_pressure;BME280_temperature;BME280_humidity;BME280_pressure;Samples;Min_cycle;Max_cycle;Signal;HPM_P1;HPM_P2
2023/06/25 00:01:59;;;;;;;10.87;7.53;;;;;;;19.28;96.59;102036.41;5060399;28;20040;-69
2023/06/25 00:04:25;;;;;;;12.45;8.05;;;;;;;19.25;96.11;102039.63;5060373;28;20058;-71
2023/06/25 00:06:50;;;;;;;10.70;7.47;;;;;;;19.22;95.21;102029.00;5059543;28;20061;-69
2023/06/25 00:09:17;;;;;;;11.30;7.93;;;;;;;19.23;96.88;102012.09;5051241;28;20024;-69
2023/06/25 00:11:42;;;;;;;12.00;8.43;;;;;;;19.23;97.11;102025.13;5055604;28;20059;-69
2023/06/25 00:14:07;;;;;;;11.97;7.97;;;;;;;19.20;98.02;102009.72;5058393;28;20037;-70
2023/06/25 00:16:33;;;;;;;12.87;9.00;;;;;;;19.19;97.25;102008.03;5061945;28;20033;-70
2023/06/25 00:19:00;;;;;;;13.43;8.57;;;;;;;19.19;97.31;102012.72;5055403;28;20037;-69
2023/06/25 00:21:25;;;;;;;13.13;8.73;;;;;;;19.17;97.30;102009.31;5057550;28;20553;-69
2023/06/25 00:23:51;;;;;;;15.67;9.30;;;;;;;19.16;96.66;102002.06;5059862;28;20024;-69
2023/06/25 00:26:16;;;;;;;13.17;8.73;;;;;;;19.15;97.68;102003.16;5057322;28;20043;-69
2023/06/25 00:28:42;;;;;;;15.13;9.33;;;;;;;19.17;97.79;102003.78;5061155;28;20424;-69
2023/06/25 00:31:07;;;;;;;15.07;9.77;;;;;;;19.18;98.35;101995.22;5056377;28;20039;-69
2023/06/25 00:33:33;;;;;;;15.60;9.17;;;;;;;19.11;98.09;101990.78;5039396;28;20029;-70
2023/06/25 00:35:58;;;;;;;13.93;9.73;;;;;;;19.09;99.24;101991.00;5039372;28;20098;-69
2023/06/25 00:38:24;;;;;;;18.03;9.37;;;;;;;19.07;100.00;101998.72;5060225;28;20144;-69
2023/06/25 00:40:50;;;;;;;18.60;9.70;;;;;;;19.01;99.53;101996.84;5041994;28;20040;-71
2023/06/25 00:43:16;;;;;;;13.15;10.05;;;;;;;18.99;100.00;101987.88;5039121;28;20029;-69
2023/06/25 00:45:45;;;;;;;16.03;9.13;;;;;;;18.96;100.00;101985.56;5050466;28;20027;-69
2023/06/25 00:48:10;;;;;;;13.38;10.20;;;;;;;18.95;100.00;101983.00;5023073;28;20281;-70
2023/06/25 00:50:36;;;;;;;16.40;10.93;;;;;;;18.94;100.00;101979.34;5059589;28;20489;-70
2023/06/25 00:53:02;;;;;;;14.90;10.80;;;;;;;18.90;100.00;101980.03;5058822;28;20036;-70
2023/06/25 00:55:28;;;;;;;16.53;10.10;;;;;;;18.87;100.00;101978.56;5054531;28;20048;-70
2023/06/25 00:57:55;;;;;;;14.82;9.70;;;;;;;18.88;100.00;101971.09;5039414;28;20298;-70
2023/06/25 01:00:25;;;;;;;14.73;10.25;;;;;;;18.80;100.00;101969.44;5038557;28;20047;-70
2023/06/25 01:02:53;;;;;;;18.15;10.32;;;;;;;18.77;100.00;101961.53;5040323;28;20029;-70
2023/06/25 01:05:22;;;;;;;14.00;10.38;;;;;;;18.75;100.00;101962.84;5033714;28;20461;-70
2023/06/25 01:07:47;;;;;;;15.25;10.40;;;;;;;18.75;100.00;101957.28;5047823;28;20024;-70
2023/06/25 01:10:14;;;;;;;14.90;10.73;;;;;;;18.72;100.00;101955.81;5056550;28;20029;-70
2023/06/25 01:12:42;;;;;;;12.48;10.45;;;;;;;18.72;100.00;101947.47;5060509;28;20295;-70
2023/06/25 01:15:09;;;;;;;16.67;11.20;;;;;;;18.76;100.00;101956.22;5055721;28;20150;-69
2023/06/25 01:17:36;;;;;;;19.17;12.10;;;;;;;18.74;100.00;101955.59;5057154;28;20126;-70
2023/06/25 01:20:01;;;;;;;;;;;;;;;18.67;100.00;101940.91;5059728;28;20063;-70
2023/06/25 01:22:31;;;;;;;16.48;11.20;;;;;;;18.72;100.00;101946.66;5058110;28;20013;-69
2023/06/25 01:24:57;;;;;;;17.63;11.80;;;;;;;18.67;100.00;101944.53;5059207;28;20215;-70
2023/06/25 01:27:23;;;;;;;18.38;13.15;;;;;;;18.82;100.00;101938.66;5034303;28;20025;-70
2023/06/25 01:29:49;;;;;;;24.70;12.37;;;;;;;18.80;100.00;101929.69;5055179;28;20094;-70
2023/06/25 01:32:15;;;;;;;24.95;13.60;;;;;;;18.84;100.00;101930.97;5035901;28;20119;-70
2023/06/25 01:34:41;;;;;;;20.00;11.60;;;;;;;18.79;100.00;101923.28;5053356;28;20044;-69
2023/06/25 01:37:08;;;;;;;20.37;11.93;;;;;;;18.75;100.00;101926.75;5056420;28;20341;-69
2023/06/25 01:39:34;;;;;;;18.60;12.82;;;;;;;18.80;100.00;101921.38;5057776;28;20037;-70
2023/06/25 01:41:59;;;;;;;16.20;13.23;;;;;;;18.78;100.00;101923.53;5036177;28;20049;-69
2023/06/25 01:44:30;;;;;;;20.60;11.83;;;;;;;18.79;100.00;101922.47;5055861;28;20517;-70
2023/06/25 01:46:56;;;;;;;16.38;11.65;;;;;;;18.68;100.00;101912.06;5055943;28;20029;-70
2023/06/25 01:49:22;;;;;;;18.88;11.70;;;;;;;18.67;100.00;101913.97;5040801;28;20369;-70
2023/06/25 01:51:48;;;;;;;19.38;12.30;;;;;;;18.60;100.00;101904.88;5032705;28;20055;-71
2023/06/25 01:54:14;;;;;;;17.57;13.20;;;;;;;18.63;100.00;101906.34;5039049;28;20056;-72
2023/06/25 01:56:39;;;;;;;19.17;11.97;;;;;;;18.57;100.00;101899.75;5052076;28;20655;-71
2023/06/25 01:59:04;;;;;;;21.53;13.37;;;;;;;18.61;100.00;101900.13;5058253;28;20552;-70
2023/06/25 02:01:31;;;;;;;20.20;13.60;;;;;;;18.55;100.00;101892.72;5054929;28;20033;-69
2023/06/25 02:03:56;;;;;;;18.77;12.93;;;;;;;18.55;100.00;101895.50;5030717;28;20120;-69
2023/06/25 02:06:21;;;;;;;19.33;13.57;;;;;;;18.60;100.00;101893.75;5057251;28;20743;-69
2023/06/25 02:08:47;;;;;;;18.80;13.70;;;;;;;18.63;100.00;101884.97;5060915;28;20025;-69
2023/06/25 02:11:12;;;;;;;17.57;13.20;;;;;;;18.55;100.00;101882.47;5034832;28;20028;-70
2023/06/25 02:13:38;;;;;;;21.60;13.40;;;;;;;18.50;100.00;101881.44;5052729;28;20036;-70
2023/06/25 02:16:03;;;;;;;19.23;12.93;;;;;;;18.58;100.00;101882.00;5057569;28;20028;-70
2023/06/25 02:18:30;;;;;;;17.70;13.47;;;;;;;18.51;100.00;101874.84;5052901;28;20430;-70
2023/06/25 02:20:55;;;;;;;;;;;;;;;18.52;100.00;101876.53;5059627;28;20381;-70
2023/06/25 02:23:21;;;;;;;20.58;15.32;;;;;;;18.58;100.00;101867.31;5040281;28;19912;-71
2023/06/25 02:25:48;;;;;;;32.17;15.83;;;;;;;18.55;100.00;101871.38;5055910;28;20025;-70
2023/06/25 02:28:14;;;;;;;20.75;15.40;;;;;;;18.53;100.00;101862.44;5040886;28;20029;-69
2023/06/25 02:30:39;;;;;;;20.70;14.97;;;;;;;18.46;100.00;101869.09;5058982;28;20021;-70
2023/06/25 02:33:04;;;;;;;21.77;14.70;;;;;;;18.46;100.00;101869.09;5030953;28;20032;-71
2023/06/25 02:35:30;;;;;;;25.07;15.83;;;;;;;18.39;100.00;101869.13;5060269;28;20033;-69
2023/06/25 02:37:55;;;;;;;19.13;14.30;;;;;;;18.43;100.00;101866.75;5043910;28;20032;-70
2023/06/25 02:40:22;;;;;;;21.77;15.33;;;;;;;18.33;100.00;101871.94;5042749;28;20122;-70
2023/06/25 02:42:47;;;;;;;22.52;15.20;;;;;;;18.32;100.00;101864.69;5042038;28;20031;-69
2023/06/25 02:45:12;;;;;;;25.33;14.40;;;;;;;18.25;100.00;101867.47;5061191;28;20044;-69
2023/06/25 02:47:39;;;;;;;30.67;15.73;;;;;;;18.24;100.00;101857.47;5058780;28;20021;-69
2023/06/25 02:50:05;;;;;;;20.08;14.25;;;;;;;18.20;100.00;101855.38;5040886;28;20111;-70
2023/06/25 02:52:31;;;;;;;25.45;14.52;;;;;;;18.14;100.00;101859.88;5061598;28;20470;-68
2023/06/25 02:54:56;;;;;;;22.40;15.57;;;;;;;18.20;100.00;101849.81;5062657;28;20076;-70
2023/06/25 02:57:29;;;;;;;19.60;14.27;;;;;;;18.13;100.00;101851.75;5038442;28;20016;-69
2023/06/25 02:59:56;;;;;;;23.33;14.80;;;;;;;18.08;100.00;101852.44;5061170;28;20033;-71
2023/06/25 03:02:21;;;;;;;21.67;15.75;;;;;;;18.06;100.00;101853.72;5055555;28;20039;-71
2023/06/25 03:04:47;;;;;;;27.67;15.40;;;;;;;18.02;100.00;101845.00;5063528;28;20028;-72
2023/06/25 03:07:13;;;;;;;19.83;15.20;;;;;;;18.00;100.00;101844.38;5062528;28;20052;-70
2023/06/25 03:09:38;;;;;;;22.93;16.30;;;;;;;18.09;100.00;101847.75;5058744;28;20053;-71
2023/06/25 03:12:04;;;;;;;21.60;15.23;;;;;;;18.10;100.00;101853.06;5064496;28;20472;-72
2023/06/25 03:14:30;;;;;;;23.75;16.25;;;;;;;18.04;100.00;101842.84;5061248;28;20032;-71
2023/06/25 03:16:56;;;;;;;22.98;16.42;;;;;;;18.06;100.00;101849.03;5056877;28;20416;-71
2023/06/25 03:19:21;;;;;;;24.00;16.03;;;;;;;18.01;100.00;101857.16;5055153;28;20358;-71
2023/06/25 03:21:47;;;;;;;23.43;16.60;;;;;;;18.08;100.00;101849.66;5059778;28;20033;-71
2023/06/25 03:24:13;;;;;;;23.30;15.93;;;;;;;17.98;100.00;101856.78;5063840;28;20033;-71
2023/06/25 03:26:38;;;;;;;28.10;16.43;;;;;;;17.98;100.00;101852.06;5063205;28;20032;-72
2023/06/25 03:29:03;;;;;;;28.87;15.57;;;;;;;17.99;100.00;101852.91;5043326;28;20430;-71
2023/06/25 03:31:29;;;;;;;26.70;16.57;;;;;;;17.95;100.00;101851.66;5056877;28;20059;-72
2023/06/25 03:33:54;;;;;;;21.50;15.67;;;;;;;17.95;100.00;101846.97;5056427;28;20032;-70
2023/06/25 03:36:22;;;;;;;26.90;16.63;;;;;;;18.03;100.00;101837.53;5062791;28;20044;-71
2023/06/25 03:38:47;;;;;;;25.83;16.30;;;;;;;17.99;100.00;101842.66;5058428;28;20112;-70
2023/06/25 03:41:13;;;;;;;23.63;15.50;;;;;;;17.97;100.00;101836.50;5060284;28;20579;-71
2023/06/25 03:43:38;;;;;;;26.00;17.13;;;;;;;17.97;100.00;101850.34;5060670;28;20082;-70
2023/06/25 03:46:04;;;;;;;23.98;15.90;;;;;;;17.97;100.00;101846.72;5057367;28;20021;-70
2023/06/25 03:48:30;;;;;;;27.27;17.10;;;;;;;18.02;100.00;101838.59;5042000;28;20541;-71
2023/06/25 03:50:55;;;;;;;23.83;16.10;;;;;;;18.03;100.00;101840.31;5060811;28;20051;-71
2023/06/25 03:53:21;;;;;;;26.93;17.13;;;;;;;18.05;100.00;101852.91;5061889;28;20025;-71
2023/06/25 03:55:46;;;;;;;28.90;18.43;;;;;;;18.12;100.00;101842.59;5041176;28;20073;-72
2023/06/25 03:58:12;;;;;;;29.37;18.67;;;;;;;18.20;100.00;101838.72;5052114;28;20029;-71
2023/06/25 04:00:37;;;;;;;26.90;18.30;;;;;;;18.18;100.00;101844.47;5049671;28;20032;-71
2023/06/25 04:03:03;;;;;;;26.07;17.83;;;;;;;18.17;100.00;101836.38;5054016;28;20029;-71
2023/06/25 04:05:28;;;;;;;26.33;17.23;;;;;;;18.20;100.00;101822.06;5056013;28;20033;-71
2023/06/25 04:07:54;;;;;;;29.23;18.77;;;;;;;18.20;100.00;101822.91;5038455;28;20115;-71
2023/06/25 04:10:19;;;;;;;27.90;15.90;;;;;;;18.23;100.00;101832.72;5048858;28;20028;-73
2023/06/25 04:12:45;;;;;;;29.17;18.27;;;;;;;18.29;100.00;101829.03;5031117;28;20028;-74
2023/06/25 04:15:11;;;;;;;30.37;19.07;;;;;;;18.29;100.00;101824.34;5016861;28;20028;-75
2023/06/25 04:17:37;;;;;;;28.97;19.20;;;;;;;18.38;100.00;101827.72;5041148;28;20102;-74
2023/06/25 04:20:02;;;;;;;29.40;18.80;;;;;;;18.38;100.00;101830.50;5039798;28;20060;-75
2023/06/25 04:22:28;;;;;;;27.87;18.33;;;;;;;18.40;100.00;101825.59;5060547;28;20288;-74
2023/06/25 04:24:53;;;;;;;29.23;18.47;;;;;;;18.47;100.00;101824.44;5058092;28;20428;-74
2023/06/25 04:27:20;;;;;;;36.90;18.77;;;;;;;18.59;100.00;101827.38;5062062;28;20028;-74
2023/06/25 04:29:46;;;;;;;28.00;17.63;;;;;;;18.60;100.00;101829.91;5042328;28;20025;-74
2023/06/25 04:32:11;;;;;;;33.23;18.90;;;;;;;18.66;100.00;101833.69;5040381;28;20142;-74
2023/06/25 04:34:37;;;;;;;29.17;17.97;;;;;;;18.73;100.00;101831.75;5036265;28;20116;-74
2023/06/25 04:37:02;;;;;;;30.77;18.43;;;;;;;18.76;100.00;101828.50;5055944;28;20578;-73
2023/06/25 04:39:28;;;;;;;24.10;16.40;;;;;;;18.81;100.00;101823.13;5052407;28;20066;-74
2023/06/25 04:41:53;;;;;;;32.43;18.50;;;;;;;18.87;100.00;101830.53;5042449;28;20036;-73
2023/06/25 04:44:19;;;;;;;32.37;17.60;;;;;;;18.91;100.00;101824.31;5060888;28;20098;-74
2023/06/25 04:46:44;;;;;;;38.47;18.93;;;;;;;18.97;100.00;101819.75;5035205;28;20035;-74
2023/06/25 04:49:10;;;;;;;25.73;16.70;;;;;;;19.05;100.00;101831.41;5054264;28;20083;-74
2023/06/25 04:51:35;;;;;;;31.47;18.13;;;;;;;19.11;100.00;101827.72;5042026;28;20480;-73
2023/06/25 04:54:01;;;;;;;28.23;17.23;;;;;;;19.22;100.00;101829.78;5041285;28;20052;-74
2023/06/25 04:56:26;;;;;;;27.77;17.97;;;;;;;19.29;100.00;101822.25;5061162;28;20028;-74
2023/06/25 04:58:51;;;;;;;28.20;17.60;;;;;;;19.40;100.00;101824.25;5052899;28;20060;-74
2023/06/25 05:01:17;;;;;;;34.53;18.80;;;;;;;19.47;100.00;101825.03;5052918;28;20245;-74
2023/06/25 05:03:42;;;;;;;30.73;19.80;;;;;;;19.58;100.00;101815.06;5059306;28;20361;-74
2023/06/25 05:06:10;;;;;;;29.23;19.17;;;;;;;19.67;100.00;101817.28;5055890;28;20040;-74
2023/06/25 05:08:37;;;;;;;29.92;18.42;;;;;;;19.88;100.00;101818.72;5051964;28;20082;-74
2023/06/25 05:11:02;;;;;;;25.40;17.80;;;;;;;20.06;100.00;101827.06;5048360;28;20032;-74
2023/06/25 05:13:29;;;;;;;27.52;17.77;;;;;;;20.40;100.00;101820.78;5059816;28;20171;-74
2023/06/25 05:15:55;;;;;;;;;;;;;;;21.21;96.87;101827.31;5049128;28;20025;-74
2023/06/25 05:18:20;;;;;;;24.83;16.38;;;;;;;22.24;90.43;101823.47;5050910;28;19967;-74
2023/06/25 05:20:46;;;;;;;22.50;15.83;;;;;;;23.38;86.48;101832.19;5042674;28;20037;-73
2023/06/25 05:23:11;;;;;;;20.60;15.43;;;;;;;24.31;78.94;101839.31;5036886;28;20537;-74
2023/06/25 05:25:36;;;;;;;18.50;14.47;;;;;;;25.19;75.04;101836.75;5061677;28;20058;-75
2023/06/25 05:28:02;;;;;;;24.00;15.10;;;;;;;25.87;71.35;101835.81;5035872;28;20048;-74
2023/06/25 05:30:29;;;;;;;22.98;14.35;;;;;;;26.40;67.58;101836.28;5039555;28;20594;-73
2023/06/25 05:32:55;;;;;;;20.52;14.00;;;;;;;27.01;64.66;101834.41;5036219;28;20400;-73
2023/06/25 05:35:22;;;;;;;20.60;13.75;;;;;;;27.49;61.56;101834.66;5055555;28;20029;-73
2023/06/25 05:37:48;;;;;;;17.42;13.63;;;;;;;27.49;60.05;101836.63;5023275;28;20037;-74
2023/06/25 05:40:15;;;;;;;;;;;;;;;27.64;61.47;101840.25;5038809;28;20047;-74
2023/06/25 05:42:40;;;;;;;17.33;13.18;;;;;;;28.31;56.67;101839.69;5041893;28;20580;-73
2023/06/25 05:45:06;;;;;;;;;;;;;;;28.45;54.23;101846.44;5056419;28;20044;-74
2023/06/25 05:47:32;;;;;;;17.10;11.77;;;;;;;28.68;55.27;101845.69;5057181;28;19919;-74
2023/06/25 05:49:58;;;;;;;17.42;12.48;;;;;;;28.48;55.97;101841.03;5019223;28;20096;-74
2023/06/25 05:52:24;;;;;;;15.18;12.00;;;;;;;28.83;54.64;101849.25;5056829;28;20035;-74
2023/06/25 05:54:49;;;;;;;18.20;11.95;;;;;;;28.84;54.00;101839.66;5024144;28;20056;-74
2023/06/25 05:57:15;;;;;;;88.72;37.00;;;;;;;29.07;53.00;101838.09;5055598;28;20772;-74
2023/06/25 05:59:40;;;;;;;16.67;13.07;;;;;;;29.35;52.31;101848.53;5057436;28;20433;-73
2023/06/25 06:02:08;;;;;;;17.08;11.82;;;;;;;29.31;52.63;101853.09;5020727;28;20057;-73
2023/06/25 06:04:34;;;;;;;16.42;11.82;;;;;;;29.75;50.62;101850.94;5060154;28;20071;-73
2023/06/25 06:07:00;;;;;;;14.95;12.38;;;;;;;29.82;51.18;101852.28;5054998;28;20116;-73
2023/06/25 06:09:25;;;;;;;13.65;11.57;;;;;;;29.58;52.41;101844.94;5036496;28;20387;-73
2023/06/25 06:11:50;;;;;;;13.70;11.30;;;;;;;30.24;46.85;101834.53;5055288;28;20025;-74
2023/06/25 06:14:16;;;;;;;14.10;10.95;;;;;;;30.10;50.05;101842.03;5063587;28;20032;-73
2023/06/25 06:16:42;;;;;;;18.40;11.90;;;;;;;30.04;47.94;101844.09;5055751;28;20029;-73
2023/06/25 06:19:07;;;;;;;17.23;11.65;;;;;;;30.17;50.16;101848.19;5062611;28;20029;-73
2023/06/25 06:21:32;;;;;;;14.10;11.05;;;;;;;31.01;47.43;101836.75;5043179;28;20483;-74
2023/06/25 06:23:58;;;;;;;13.85;10.60;;;;;;;30.63;47.66;101846.41;5061297;28;20439;-74
2023/06/25 06:26:23;;;;;;;12.93;10.60;;;;;;;30.56;47.30;101838.28;5058471;28;20075;-74
2023/06/25 06:28:52;;;;;;;15.00;11.05;;;;;;;31.11;44.88;101845.91;5043244;28;20085;-74
2023/06/25 06:31:18;;;;;;;16.75;11.30;;;;;;;31.10;44.70;101846.22;5058023;28;20029;-74
2023/06/25 06:33:43;;;;;;;16.30;10.10;;;;;;;31.78;43.29;101847.25;5060608;28;20031;-74
2023/06/25 06:36:09;;;;;;;14.18;10.15;;;;;;;31.70;44.24;101837.44;5042689;28;20021;-74
2023/06/25 06:38:34;;;;;;;11.23;9.77;;;;;;;30.93;45.36;101834.59;5039418;28;20358;-73
2023/06/25 06:41:00;;;;;;;12.20;9.90;;;;;;;30.97;44.45;101830.88;5059645;28;20053;-73
2023/06/25 06:43:25;;;;;;;13.65;10.88;;;;;;;31.60;44.37;101828.31;5058707;28;20029;-74
2023/06/25 06:45:51;;;;;;;12.38;10.18;;;;;;;31.64;45.76;101829.38;5057731;28;20028;-75
2023/06/25 06:48:16;;;;;;;14.45;9.98;;;;;;;32.02;43.03;101828.84;5052750;28;20070;-73
2023/06/25 06:50:41;;;;;;;12.07;9.40;;;;;;;31.79;43.35;101827.09;5044463;28;20074;-74
2023/06/25 06:53:07;;;;;;;10.73;9.25;;;;;;;32.55;40.11;101834.81;5040805;28;20032;-73
2023/06/25 06:55:33;;;;;;;12.15;9.43;;;;;;;31.70;43.01;101828.94;5058221;28;20043;-73
2023/06/25 06:57:58;;;;;;;10.10;8.80;;;;;;;31.20;45.42;101827.09;5051124;28;20391;-73
2023/06/25 07:00:23;;;;;;;10.15;8.93;;;;;;;31.84;42.45;101820.50;5036605;28;20676;-73
2023/06/25 07:02:49;;;;;;;11.60;8.52;;;;;;;31.55;43.73;101826.44;5036496;28;20445;-73
2023/06/25 07:05:14;;;;;;;11.70;9.80;;;;;;;31.26;44.13;101823.00;5048769;28;20025;-69
2023/06/25 07:07:41;;;;;;;11.45;9.68;;;;;;;31.10;42.27;101823.56;5036662;28;20032;-70
2023/06/25 07:10:06;;;;;;;13.48;9.23;;;;;;;31.63;43.08;101820.03;5058396;28;20025;-71
2023/06/25 07:12:32;;;;;;;12.82;8.38;;;;;;;31.62;40.82;101824.00;5059297;28;20388;-71
2023/06/25 07:14:57;;;;;;;11.23;7.75;;;;;;;31.31;43.21;101822.09;5051927;28;20123;-71
2023/06/25 07:17:24;;;;;;;12.15;7.70;;;;;;;31.38;40.73;101822.50;5050307;28;20025;-72
2023/06/25 07:19:49;;;;;;;18.27;7.95;;;;;;;31.12;41.45;101827.78;5038640;28;20033;-74
2023/06/25 07:22:15;;;;;;;11.32;8.10;;;;;;;31.01;41.55;101814.97;5058703;28;20032;-71
2023/06/25 07:24:40;;;;;;;14.27;8.65;;;;;;;31.40;41.69;101825.88;5051922;28;20063;-71
2023/06/25 07:27:06;;;;;;;11.63;8.00;;;;;;;31.47;40.71;101820.66;5060294;28;20066;-71
2023/06/25 07:29:31;;;;;;;9.65;7.47;;;;;;;31.68;40.16;101813.44;5060796;28;20070;-71
2023/06/25 07:31:56;;;;;;;11.35;8.23;;;;;;;31.78;40.68;101816.06;5054867;28;20028;-71
2023/06/25 07:34:22;;;;;;;14.73;8.27;;;;;;;31.87;40.93;101823.53;5061572;28;20052;-70
2023/06/25 07:36:48;;;;;;;12.32;7.25;;;;;;;30.91;40.04;101808.59;5063863;28;20063;-71
2023/06/25 07:39:26;;;;;;;10.80;7.93;;;;;;;30.90;40.92;101813.41;5060723;28;20025;-71
2023/06/25 07:41:55;;;;;;;9.73;7.28;;;;;;;30.79;41.27;101813.91;5052202;28;20025;-71
2023/06/25 07:44:21;;;;;;;12.38;9.10;;;;;;;31.30;42.35;101818.41;5061321;28;20048;-71
2023/06/25 07:46:46;;;;;;;;;;;;;;;31.07;43.44;101810.03;5056929;28;20582;-72
2023/06/25 07:49:11;;;;;;;12.25;7.50;;;;;;;30.64;40.80;101812.16;5041979;28;20416;-71
2023/06/25 07:51:37;;;;;;;13.18;8.13;;;;;;;30.61;41.32;101812.75;5047765;28;20104;-71
2023/06/25 07:54:02;;;;;;;;;;;;;;;30.46;41.52;101812.16;5052276;28;20052;-72
2023/06/25 07:56:27;;;;;;;11.05;7.47;;;;;;;30.23;42.79;101808.25;5034635;28;20344;-71
2023/06/25 07:58:53;;;;;;;;;;;;;;;30.70;42.69;101798.78;5056948;28;20033;-73
2023/06/25 08:01:18;;;;;;;11.07;6.82;;;;;;;30.49;41.03;101803.03;5046338;28;19912;-71
2023/06/25 08:03:43;;;;;;;;;;;;;;;29.91;42.21;101810.91;5056449;28;20401;-72
2023/06/25 08:06:09;;;;;;;9.90;7.47;;;;;;;30.23;40.89;101811.06;5055107;28;19931;-72
2023/06/25 08:08:34;;;;;;;;;;;;;;;30.04;41.60;101798.84;5061127;28;20034;-72
2023/06/25 08:10:59;;;;;;;9.63;7.03;;;;;;;29.98;42.70;101793.59;5056368;28;19994;-71
2023/06/25 08:13:24;;;;;;;;;;;;;;;29.82;41.70;101794.94;5059370;28;20085;-71
2023/06/25 08:15:50;;;;;;;9.83;5.90;;;;;;;29.56;45.00;101804.84;5063500;28;19923;-72
2023/06/25 08:18:15;;;;;;;;;;;;;;;29.59;44.75;101795.75;5060511;28;20308;-71
2023/06/25 08:20:40;;;;;;;8.85;6.65;;;;;;;29.90;43.45;101792.28;5059503;28;20042;-71
2023/06/25 08:23:06;;;;;;;;;;;;;;;29.86;43.35;101787.50;5063083;28;20067;-71
2023/06/25 08:25:31;;;;;;;8.98;6.32;;;;;;;29.63;43.12;101779.91;5052738;28;19912;-71
2023/06/25 08:27:57;;;;;;;;;;;;;;;29.79;42.48;101789.88;5053516;28;20052;-71
2023/06/25 08:30:22;;;;;;;8.82;6.05;;;;;;;30.09;43.51;101773.34;5048164;28;20851;-71
2023/06/25 08:32:47;;;;;;;;;;;;;;;30.00;41.81;101779.97;5060235;28;20071;-71
2023/06/25 08:35:13;;;;;;;8.35;6.03;;;;;;;29.92;43.91;101773.03;5047486;28;19924;-71
2023/06/25 08:37:38;;;;;;;;;;;;;;;29.99;41.09;101775.47;5054729;28;20258;-71
2023/06/25 08:40:04;;;;;;;8.43;5.13;;;;;;;30.05;42.14;101774.25;5046578;28;19948;-71
2023/06/25 08:42:30;;;;;;;6.90;5.05;;;;;;;29.81;41.27;101768.66;5047238;28;20031;-70
2023/06/25 08:44:57;;;;;;;5.88;4.97;;;;;;;29.77;40.86;101772.38;5048856;28;20036;-71
2023/06/25 08:47:25;;;;;;;5.60;4.72;;;;;;;29.78;41.32;101766.41;5045373;28;20021;-72
2023/06/25 08:49:53;;;;;;;8.18;5.50;;;;;;;29.61;41.25;101765.25;5036885;28;20385;-71
2023/06/25 08:52:20;;;;;;;5.47;4.82;;;;;;;29.68;40.24;101760.91;5049371;28;20177;-71
2023/06/25 08:54:46;;;;;;;9.82;5.03;;;;;;;29.72;40.61;101758.31;5050870;28;20037;-71
2023/06/25 08:57:12;;;;;;;;;;;;;;;29.82;42.14;101761.84;5054504;28;20040;-71
2023/06/25 08:59:37;;;;;;;5.68;4.65;;;;;;;29.98;40.92;101759.66;5031350;28;19947;-71
2023/06/25 09:02:03;;;;;;;;;;;;;;;30.17;40.93;101760.53;5046156;28;20033;-71
2023/06/25 09:04:28;;;;;;;6.25;4.43;;;;;;;30.09;39.87;101756.38;5045236;28;19990;-71
2023/06/25 09:06:54;;;;;;;;;;;;;;;30.13;40.08;101751.84;5041865;28;20024;-72
2023/06/25 09:09:19;;;;;;;14.73;4.78;;;;;;;30.25;39.48;101755.03;5045982;28;19963;-71
2023/06/25 09:11:44;;;;;;;;;;;;;;;30.32;40.13;101754.66;5050697;28;20032;-71
2023/06/25 09:14:10;;;;;;;10.65;4.80;;;;;;;30.17;39.51;101752.91;5030597;28;20287;-72
2023/06/25 09:16:48;;;;;;;;;;;;;;;30.41;39.90;101750.00;5046747;28;20048;-73
2023/06/25 09:19:20;;;;;;;6.35;4.55;;;;;;;30.38;40.26;101756.25;5056198;28;19982;-74
2023/06/25 09:21:48;;;;;;;4.47;3.63;;;;;;;30.48;40.50;101747.63;5054030;28;20049;-73
2023/06/25 09:24:15;;;;;;;7.18;5.05;;;;;;;30.52;40.42;101748.69;5034791;28;20445;-72
2023/06/25 09:26:58;;;;;;;6.20;4.75;;;;;;;30.42;39.56;101748.84;5049636;28;20032;-72
2023/06/25 09:29:24;;;;;;;7.57;4.63;;;;;;;30.60;39.96;101747.97;5048379;28;20017;-72
2023/06/25 09:31:49;;;;;;;;;;;;;;;30.71;39.94;101746.69;5030602;28;20738;-72
2023/06/25 09:34:16;;;;;;;10.30;4.43;;;;;;;31.07;39.21;101747.72;5049243;28;19979;-72
2023/06/25 09:36:42;;;;;;;6.82;4.30;;;;;;;30.93;39.35;101749.69;5031614;28;20119;-73
2023/06/25 09:39:08;;;;;;;;;;;;;;;30.81;37.63;101738.00;5049046;28;20112;-74
2023/06/25 09:41:34;;;;;;;6.85;4.25;;;;;;;31.05;38.60;101741.56;5047519;28;19912;-74
2023/06/25 09:44:03;;;;;;;10.32;4.43;;;;;;;31.12;38.08;101747.63;5046431;28;20034;-74
2023/06/25 09:46:32;;;;;;;4.75;4.13;;;;;;;31.27;38.32;101738.88;5048241;28;20025;-74
2023/06/25 09:48:58;;;;;;;6.80;3.83;;;;;;;31.37;39.46;101728.16;5045307;28;20492;-74
2023/06/25 09:51:28;;;;;;;;;;;;;;;31.21;38.06;101731.66;5046164;28;20024;-74
2023/06/25 09:53:59;;;;;;;5.20;4.50;;;;;;;31.20;36.73;101727.13;5029705;28;20015;-74
2023/06/25 09:56:25;;;;;;;9.48;4.63;;;;;;;31.30;37.87;101735.41;5043169;28;20068;-73
2023/06/25 09:58:51;;;;;;;6.85;4.43;;;;;;;31.41;37.27;101731.22;5045337;28;20067;-73
2023/06/25 10:01:16;;;;;;;;;;;;;;;31.49;36.89;101736.16;5047372;28;20368;-74
2023/06/25 10:03:42;;;;;;;5.47;4.22;;;;;;;31.57;37.29;101735.41;5049358;28;19913;-74
2023/06/25 10:06:08;;;;;;;4.90;3.90;;;;;;;31.72;37.66;101733.09;5047750;28;20044;-74
2023/06/25 10:08:36;;;;;;;;;;;;;;;31.92;37.03;101734.69;5047712;28;20017;-74
2023/06/25 10:11:04;;;;;;;5.55;4.32;;;;;;;32.11;36.34;101726.88;5049637;28;19923;-73
2023/06/25 10:13:30;;;;;;;4.35;3.80;;;;;;;32.04;36.76;101732.13;5041840;28;20422;-73
2023/06/25 10:15:58;;;;;;;;;;;;;;;32.04;37.12;101718.81;5045796;28;20036;-74
2023/06/25 10:18:24;;;;;;;5.43;4.25;;;;;;;32.08;37.74;101722.69;5046906;28;19925;-74
2023/06/25 10:20:49;;;;;;;;;;;;;;;32.48;38.00;101720.91;5028857;28;20458;-73
2023/06/25 10:23:22;;;;;;;5.80;4.47;;;;;;;32.20;37.11;101710.75;5049450;28;19940;-73
2023/06/25 10:25:56;;;;;;;10.43;4.28;;;;;;;32.12;36.61;101706.69;5051768;28;20036;-73
2023/06/25 10:28:32;;;;;;;6.68;4.05;;;;;;;31.99;36.39;101695.38;5043187;28;20061;-75
2023/06/25 10:30:59;;;;;;;6.88;4.45;;;;;;;32.33;36.06;101696.56;5045419;28;20025;-73
2023/06/25 10:33:28;;;;;;;7.28;4.00;;;;;;;32.45;36.22;101699.69;5032568;28;20021;-73
2023/06/25 10:35:55;;;;;;;6.20;3.63;;;;;;;32.75;36.81;101698.03;5048875;28;20037;-74
2023/06/25 10:38:21;;;;;;;3.78;3.47;;;;;;;32.50;35.40;101684.50;5039869;28;20839;-75
2023/06/25 10:40:47;;;;;;;;;;;;;;;32.69;35.96;101694.47;5053622;28;20113;-73
2023/06/25 10:43:18;;;;;;;5.50;4.03;;;;;;;32.80;35.96;101695.09;5049111;28;19917;-74
2023/06/25 10:45:50;;;;;;;9.02;4.28;;;;;;;33.10;34.90;101691.41;5034583;28;20483;-74
2023/06/25 10:48:16;;;;;;;11.25;4.18;;;;;;;32.79;34.86;101687.72;5024402;28;20024;-73
2023/06/25 10:50:41;;;;;;;;;;;;;;;33.02;35.00;101686.53;5055315;28;20392;-73
2023/06/25 10:53:12;;;;;;;7.20;4.15;;;;;;;33.07;35.70;101683.56;5049984;28;20394;-73
2023/06/25 10:55:38;;;;;;;7.32;3.80;;;;;;;33.07;34.74;101672.19;5047044;28;20056;-73
2023/06/25 10:58:04;;;;;;;5.68;3.88;;;;;;;33.29;35.36;101674.97;5052167;28;20020;-73
2023/06/25 11:00:30;;;;;;;6.88;3.88;;;;;;;33.05;35.13;101680.19;5036328;28;20514;-73
2023/06/25 11:02:56;;;;;;;6.82;4.35;;;;;;;33.15;34.77;101668.53;5052546;28;20682;-72
2023/06/25 11:05:33;;;;;;;7.80;4.15;;;;;;;33.30;33.91;101659.59;5051472;28;20058;-72
2023/06/25 11:07:58;;;;;;;11.77;5.38;;;;;;;33.08;33.94;101663.31;5055482;28;20025;-72
2023/06/25 11:10:23;;;;;;;6.45;3.92;;;;;;;33.40;35.69;101662.97;5036103;28;20047;-73
2023/06/25 11:12:50;;;;;;;5.43;4.00;;;;;;;33.38;35.28;101655.94;5035459;28;20036;-72
2023/06/25 11:15:17;;;;;;;4.25;3.78;;;;;;;33.58;35.20;101661.00;5061031;28;20028;-72